createdAt,value
2019-01-10T00:02:30.043Z,-0.50
2019-01-10T00:05:10.571Z,-0.40
2019-01-10T00:07:51.417Z,-0.50
2019-01-10T00:10:32.017Z,-0.50
2019-01-10T00:13:12.872Z,-0.40
2019-01-10T00:15:53.312Z,-0.40
2019-01-10T00:18:33.795Z,-0.40
2019-01-10T00:21:14.191Z,-0.40
2019-01-10T00:23:54.756Z,-0.40
2019-01-10T00:26:35.385Z,-0.40
2019-01-10T00:29:15.800Z,-0.40
2019-01-10T00:31:56.388Z,-0.40
2019-01-10T00:34:37.375Z,-0.40
2019-01-10T00:37:18.074Z,-0.40
2019-01-10T00:39:58.872Z,-0.40
2019-01-10T00:42:48.799Z,-0.40
2019-01-10T00:45:22.500Z,-0.40
2019-01-10T00:48:03.105Z,-0.40
2019-01-10T00:50:44.000Z,-0.50
2019-01-10T00:53:24.668Z,-0.50
2019-01-10T00:56:05.508Z,-0.50
2019-01-10T00:58:46.196Z,-0.50
2019-01-10T01:01:27.040Z,-0.40
2019-01-10T01:04:12.570Z,-0.40
2019-01-10T01:09:41.140Z,-0.30
2019-01-10T01:12:22.054Z,-0.30
2019-01-10T01:15:02.796Z,-0.30
2019-01-10T01:17:43.656Z,-0.40
2019-01-10T01:20:24.624Z,-0.40
2019-01-10T01:23:05.289Z,-0.50
2019-01-10T01:25:46.228Z,-0.60
2019-01-10T01:28:27.004Z,-0.60
2019-01-10T01:31:07.878Z,-0.70
2019-01-10T01:33:48.973Z,-0.70
2019-01-10T01:36:29.851Z,-0.80
2019-01-10T01:39:10.507Z,-0.80
2019-01-10T01:41:51.492Z,-0.80
2019-01-10T01:44:32.102Z,-0.80
2019-01-10T01:47:13.204Z,-0.80
2019-01-10T01:49:53.749Z,-0.80
2019-01-10T01:52:34.516Z,-0.80
2019-01-10T01:55:15.611Z,-0.80
2019-01-10T01:57:56.423Z,-0.80
2019-01-10T02:00:37.324Z,-0.80
2019-01-10T02:03:17.996Z,-0.80
2019-01-10T02:05:58.694Z,-0.80
2019-01-10T02:08:39.426Z,-0.80
2019-01-10T02:11:20.248Z,-0.80
2019-01-10T02:14:00.862Z,-0.90
2019-01-10T02:16:41.664Z,-0.90
2019-01-10T02:19:22.385Z,-0.80
2019-01-10T02:22:06.271Z,-0.80
2019-01-10T02:24:48.920Z,-0.80
2019-01-10T02:27:29.509Z,-0.80
2019-01-10T02:30:10.382Z,-0.80
2019-01-10T02:32:51.453Z,-0.80
2019-01-10T02:35:32.130Z,-0.80
2019-01-10T02:38:13.025Z,-0.80
2019-01-10T02:40:53.488Z,-0.80
2019-01-10T02:43:34.542Z,-0.80
2019-01-10T02:46:14.902Z,-0.80
2019-01-10T02:48:55.768Z,-0.80
2019-01-10T02:51:36.703Z,-0.70
2019-01-10T02:54:17.153Z,-0.70
2019-01-10T02:56:57.671Z,-0.70
2019-01-10T02:59:38.437Z,-0.70
2019-01-10T03:02:19.104Z,-0.70
2019-01-10T03:05:00.068Z,-0.80
2019-01-10T03:07:40.812Z,-0.80
2019-01-10T03:10:21.989Z,-0.80
2019-01-10T03:13:02.837Z,-0.90
2019-01-10T03:15:43.866Z,-0.90
2019-01-10T03:18:24.712Z,-0.90
2019-01-10T03:21:05.467Z,-0.90
2019-01-10T03:23:46.187Z,-0.90
2019-01-10T03:26:27.099Z,-0.90
2019-01-10T03:29:07.863Z,-0.80
2019-01-10T03:31:48.591Z,-0.80
2019-01-10T03:34:32.213Z,-0.80
2019-01-10T03:37:17.709Z,-0.80
2019-01-10T03:39:58.905Z,-0.80
2019-01-10T03:42:39.352Z,-0.90
2019-01-10T03:45:19.873Z,-0.90
2019-01-10T03:48:00.507Z,-0.90
2019-01-10T03:50:41.196Z,-0.90
2019-01-10T03:53:10.217Z,-0.90
2019-01-10T03:55:58.358Z,-0.90
2019-01-10T03:58:46.586Z,-0.90
2019-01-10T04:01:27.551Z,-0.90
2019-01-10T04:04:08.122Z,-0.90
2019-01-10T04:06:49.197Z,-0.90
2019-01-10T04:09:29.857Z,-0.90
2019-01-10T04:12:10.731Z,-0.90
2019-01-10T04:14:51.544Z,-0.80
2019-01-10T04:17:32.134Z,-0.80
2019-01-10T04:20:12.892Z,-0.80
2019-01-10T04:22:53.720Z,-0.90
2019-01-10T04:25:34.658Z,-0.90
2019-01-10T04:28:15.929Z,-0.90
2019-01-10T04:30:56.710Z,-0.80
2019-01-10T04:33:37.493Z,-0.90
2019-01-10T04:36:17.913Z,-0.90
2019-01-10T04:38:58.716Z,-0.90
2019-01-10T04:41:40.422Z,-0.90
2019-01-10T04:44:21.211Z,-0.90
2019-01-10T04:47:01.902Z,-0.90
2019-01-10T04:49:42.820Z,-0.90
2019-01-10T04:52:23.764Z,-0.90
2019-01-10T04:55:04.581Z,-0.90
2019-01-10T04:57:45.381Z,-0.90
2019-01-10T05:00:26.187Z,-0.90
2019-01-10T05:03:07.156Z,-0.90
2019-01-10T05:05:48.027Z,-0.90
2019-01-10T05:08:28.793Z,-0.80
2019-01-10T05:11:11.356Z,-0.80
2019-01-10T05:13:52.271Z,-0.80
2019-01-10T05:16:33.501Z,-0.90
2019-01-10T05:19:14.288Z,-0.90
2019-01-10T05:21:55.055Z,-0.90
2019-01-10T05:24:35.697Z,-0.90
2019-01-10T05:27:16.472Z,-0.90
2019-01-10T05:29:57.198Z,-0.90
2019-01-10T05:32:37.953Z,-0.90
2019-01-10T05:35:18.989Z,-0.90
2019-01-10T05:38:00.111Z,-0.90
2019-01-10T05:40:40.894Z,-0.90
2019-01-10T05:43:21.640Z,-0.90
2019-01-10T05:46:02.384Z,-0.90
2019-01-10T05:48:47.304Z,-0.90
2019-01-10T05:51:25.945Z,-0.90
2019-01-10T05:54:06.627Z,-0.90
2019-01-10T05:56:47.076Z,-0.90
2019-01-10T05:59:27.918Z,-0.90
2019-01-10T06:02:08.639Z,-1.00
2019-01-10T06:04:49.362Z,-1.00
2019-01-10T06:10:18.447Z,-1.00
2019-01-10T06:12:59.455Z,-1.00
2019-01-10T06:15:40.348Z,-1.10
2019-01-10T06:18:21.170Z,-1.10
2019-01-10T06:21:02.102Z,-1.10
2019-01-10T06:23:43.700Z,-1.00
2019-01-10T06:26:24.380Z,-1.00
2019-01-10T06:29:05.233Z,-1.00
2019-01-10T06:31:45.976Z,-1.00
2019-01-10T06:34:26.982Z,-1.00
2019-01-10T06:37:07.874Z,-0.90
2019-01-10T06:39:48.984Z,-0.90
2019-01-10T06:42:29.712Z,-0.90
2019-01-10T06:45:10.494Z,-0.90
2019-01-10T06:47:51.328Z,-0.90
2019-01-10T06:50:32.291Z,-0.90
2019-01-10T06:53:13.191Z,-0.90
2019-01-10T06:55:54.361Z,-0.90
2019-01-10T06:58:35.036Z,-0.90
2019-01-10T07:01:15.948Z,-0.90
2019-01-10T07:03:56.982Z,-0.90
2019-01-10T07:06:37.810Z,-0.90
2019-01-10T07:09:18.600Z,-1.00
2019-01-10T07:11:59.281Z,-1.00
2019-01-10T07:14:40.093Z,-1.00
2019-01-10T07:17:21.068Z,-1.00
2019-01-10T07:20:05.120Z,-1.00
2019-01-10T07:22:46.138Z,-1.00
2019-01-10T07:25:27.041Z,-1.00
2019-01-10T07:28:23.868Z,-1.00
2019-01-10T07:31:06.559Z,-1.00
2019-01-10T07:33:47.614Z,-1.00
2019-01-10T07:36:28.304Z,-0.90
2019-01-10T07:39:09.177Z,-0.90
2019-01-10T07:41:49.869Z,-0.80
2019-01-10T07:44:30.561Z,-0.70
2019-01-10T07:47:11.269Z,-0.60
2019-01-10T07:49:52.008Z,-0.60
2019-01-10T07:52:32.885Z,-0.60
2019-01-10T07:55:14.104Z,-0.60
2019-01-10T07:57:54.888Z,-0.50
2019-01-10T08:00:35.588Z,-0.40
2019-01-10T08:03:16.352Z,-0.40
2019-01-10T08:05:57.284Z,-0.40
2019-01-10T08:08:38.189Z,-0.30
2019-01-10T08:11:19.570Z,-0.30
2019-01-10T08:14:00.096Z,-0.30
2019-01-10T08:16:40.781Z,-0.30
2019-01-10T08:19:21.643Z,-0.30
2019-01-10T08:22:02.209Z,-0.30
2019-01-10T08:24:42.993Z,-0.20
2019-01-10T08:27:23.665Z,-0.20
2019-01-10T08:30:04.497Z,-0.10
2019-01-10T08:32:44.976Z,0.00
2019-01-10T08:35:25.703Z,0.00
2019-01-10T08:38:07.000Z,0.10
2019-01-10T08:40:49.814Z,0.00
2019-01-10T08:43:32.847Z,0.10
2019-01-10T08:46:14.060Z,0.10
2019-01-10T08:48:55.105Z,0.10
2019-01-10T08:51:38.113Z,0.20
2019-01-10T08:54:18.964Z,0.30
2019-01-10T08:56:59.744Z,0.30
2019-01-10T08:59:40.437Z,0.30
2019-01-10T09:02:21.513Z,0.40
2019-01-10T09:05:02.317Z,0.50
2019-01-10T09:07:42.979Z,0.60
2019-01-10T09:10:23.868Z,0.60
2019-01-10T09:13:04.926Z,0.60
2019-01-10T09:15:45.971Z,0.60
2019-01-10T09:18:26.853Z,0.70
2019-01-10T09:21:07.979Z,0.70
2019-01-10T09:23:48.559Z,0.80
2019-01-10T09:26:37.674Z,0.80
2019-01-10T09:29:12.599Z,0.90
2019-01-10T09:31:53.463Z,1.00
2019-01-10T09:34:34.236Z,1.00
2019-01-10T09:37:15.009Z,1.00
2019-01-10T09:39:56.109Z,0.90
2019-01-10T09:42:36.801Z,1.00
2019-01-10T09:45:17.615Z,0.90
2019-01-10T09:47:58.475Z,0.90
2019-01-10T09:50:39.480Z,0.90
2019-01-10T09:53:20.632Z,0.90
2019-01-10T09:56:01.401Z,1.00
2019-01-10T09:58:42.549Z,1.10
2019-01-10T10:01:23.166Z,1.10
2019-01-10T10:04:03.969Z,1.20
2019-01-10T10:06:45.200Z,1.40
2019-01-10T10:09:26.225Z,1.40
2019-01-10T10:12:06.688Z,1.40
2019-01-10T10:14:47.444Z,1.50
2019-01-10T10:17:28.093Z,1.60
2019-01-10T10:20:08.981Z,1.70
2019-01-10T10:22:49.900Z,1.80
2019-01-10T10:25:30.761Z,2.00
2019-01-10T10:28:12.440Z,2.10
2019-01-10T10:30:56.184Z,2.10
2019-01-10T10:36:43.565Z,2.20
2019-01-10T10:39:24.592Z,2.30
2019-01-10T10:42:05.644Z,2.20
2019-01-10T10:44:46.565Z,2.20
2019-01-10T10:47:27.436Z,2.30
2019-01-10T10:50:08.390Z,2.30
2019-01-10T10:52:48.979Z,2.20
2019-01-10T10:55:29.592Z,2.30
2019-01-10T10:58:10.569Z,2.40
2019-01-10T11:00:51.164Z,2.40
2019-01-10T11:03:31.694Z,2.40
2019-01-10T11:06:12.861Z,2.40
2019-01-10T11:08:53.576Z,2.50
2019-01-10T11:11:34.022Z,2.70
2019-01-10T11:14:14.716Z,2.80
2019-01-10T11:16:55.844Z,2.80
2019-01-10T11:19:36.550Z,2.90
2019-01-10T11:22:17.124Z,2.60
2019-01-10T11:24:57.676Z,2.70
2019-01-10T11:27:38.184Z,2.60
2019-01-10T11:30:18.816Z,2.60
2019-01-10T11:32:59.712Z,2.60
2019-01-10T11:35:40.510Z,2.70
2019-01-10T11:38:21.413Z,2.70
2019-01-10T11:41:02.192Z,2.80
2019-01-10T11:43:42.830Z,2.80
2019-01-10T11:46:23.940Z,2.90
2019-01-10T11:49:04.941Z,3.00
2019-01-10T11:51:46.078Z,3.10
2019-01-10T11:54:26.784Z,3.30
2019-01-10T11:57:07.257Z,3.40
2019-01-10T11:59:47.954Z,3.70
2019-01-10T12:02:36.248Z,3.90
2019-01-10T12:05:11.606Z,3.90
2019-01-10T12:07:52.284Z,3.90
2019-01-10T12:10:33.272Z,3.80
2019-01-10T12:13:14.053Z,3.80
2019-01-10T12:15:54.681Z,3.70
2019-01-10T12:18:36.429Z,3.40
2019-01-10T12:21:16.866Z,3.40
2019-01-10T12:23:57.540Z,3.50
2019-01-10T12:26:38.633Z,3.40
2019-01-10T12:29:19.576Z,3.10
2019-01-10T12:31:59.945Z,2.90
2019-01-10T12:34:40.819Z,2.80
2019-01-10T12:37:21.667Z,2.90
2019-01-10T12:40:02.561Z,3.00
2019-01-10T12:42:43.458Z,3.00
2019-01-10T12:45:24.569Z,3.00
2019-01-10T12:48:05.412Z,2.90
2019-01-10T12:50:46.188Z,2.80
2019-01-10T12:53:26.935Z,2.90
2019-01-10T12:56:07.960Z,2.80
2019-01-10T12:58:48.683Z,2.80
2019-01-10T13:01:29.678Z,3.00
2019-01-10T13:04:10.749Z,3.30
2019-01-10T13:06:51.891Z,3.20
2019-01-10T13:09:32.785Z,3.10
2019-01-10T13:12:13.936Z,2.90
2019-01-10T13:14:54.599Z,2.70
2019-01-10T13:17:35.460Z,2.50
2019-01-10T13:20:16.220Z,2.50
2019-01-10T13:22:56.992Z,2.40
2019-01-10T13:25:37.808Z,2.40
2019-01-10T13:28:18.869Z,2.50
2019-01-10T13:30:59.599Z,2.50
2019-01-10T13:33:40.405Z,2.60
2019-01-10T13:36:21.406Z,2.70
2019-01-10T13:39:01.847Z,2.80
2019-01-10T13:41:42.580Z,2.80
2019-01-10T13:44:23.503Z,2.70
2019-01-10T13:47:04.628Z,2.70
2019-01-10T13:49:45.438Z,2.60
2019-01-10T13:52:28.928Z,2.50
2019-01-10T13:55:10.048Z,2.50
2019-01-10T13:57:50.983Z,2.40
2019-01-10T14:00:35.532Z,2.20
2019-01-10T14:03:14.714Z,2.20
2019-01-10T14:05:55.449Z,2.10
2019-01-10T14:08:37.354Z,2.00
2019-01-10T14:11:18.296Z,2.00
2019-01-10T14:13:59.392Z,2.00
2019-01-10T14:16:40.104Z,2.00
2019-01-10T14:19:20.988Z,2.00
2019-01-10T14:22:03.843Z,2.00
2019-01-10T14:24:46.140Z,1.90
2019-01-10T14:27:27.072Z,1.80
2019-01-10T14:30:07.582Z,1.70
2019-01-10T14:32:49.540Z,1.70
2019-01-10T14:35:30.460Z,1.70
2019-01-10T14:38:11.683Z,1.80
2019-01-10T14:40:52.494Z,1.70
2019-01-10T14:43:33.256Z,1.60
2019-01-10T14:46:14.089Z,1.70
2019-01-10T14:48:55.127Z,1.80
2019-01-10T14:51:36.245Z,1.80
2019-01-10T14:54:17.452Z,1.70
2019-01-10T14:56:58.163Z,1.70
2019-01-10T14:59:38.543Z,1.70
2019-01-10T15:02:19.564Z,1.60
2019-01-10T15:05:00.580Z,1.50
2019-01-10T15:07:41.468Z,1.50
2019-01-10T15:10:22.200Z,1.40
2019-01-10T15:13:03.199Z,1.40
2019-01-10T15:15:44.089Z,1.40
2019-01-10T15:18:24.952Z,1.40
2019-01-10T15:21:05.696Z,1.30
2019-01-10T15:23:46.404Z,1.20
2019-01-10T15:26:27.208Z,1.20
2019-01-10T15:29:08.239Z,1.10
2019-01-10T15:31:48.964Z,1.00
2019-01-10T15:34:30.039Z,1.00
2019-01-10T15:37:10.829Z,0.90
2019-01-10T15:39:51.401Z,0.90
2019-01-10T15:42:32.196Z,0.80
2019-01-10T15:45:13.313Z,0.80
2019-01-10T15:47:54.042Z,0.80
2019-01-10T15:50:37.135Z,0.70
2019-01-10T15:53:17.533Z,0.70
2019-01-10T15:55:58.342Z,0.60
2019-01-10T15:58:39.309Z,0.60
2019-01-10T16:01:19.862Z,0.60
2019-01-10T16:04:00.578Z,0.60
2019-01-10T16:06:41.386Z,0.50
2019-01-10T16:09:22.297Z,0.50
2019-01-10T16:12:03.020Z,0.50
2019-01-10T16:14:43.856Z,0.40
2019-01-10T16:17:25.692Z,0.40
2019-01-10T16:20:06.668Z,0.40
2019-01-10T16:22:47.500Z,0.40
2019-01-10T16:25:28.272Z,0.40
2019-01-10T16:28:09.203Z,0.40
2019-01-10T16:30:49.903Z,0.40
2019-01-10T16:33:30.626Z,0.30
2019-01-10T16:36:11.244Z,0.30
2019-01-10T16:38:52.097Z,0.30
2019-01-10T16:41:32.857Z,0.20
2019-01-10T16:44:13.728Z,0.20
2019-01-10T16:46:54.400Z,0.10
2019-01-10T16:49:35.076Z,0.10
2019-01-10T16:52:15.883Z,0.10
2019-01-10T16:54:56.584Z,0.10
2019-01-10T16:57:39.621Z,0.10
2019-01-10T17:00:20.964Z,0.10
2019-01-10T17:03:01.857Z,0.10
2019-01-10T17:05:42.828Z,0.10
2019-01-10T17:08:23.584Z,0.00
2019-01-10T17:11:04.588Z,0.10
2019-01-10T17:13:45.346Z,0.10
2019-01-10T17:16:26.366Z,0.00
2019-01-10T17:19:07.377Z,0.00
2019-01-10T17:21:48.272Z,0.00
2019-01-10T17:24:29.056Z,0.00
2019-01-10T17:27:10.202Z,0.00
2019-01-10T17:29:51.035Z,0.00
2019-01-10T17:32:31.782Z,0.00
2019-01-10T17:35:12.380Z,-0.10
2019-01-10T17:37:53.244Z,-0.10
2019-01-10T17:40:34.144Z,-0.10
2019-01-10T17:43:15.454Z,-0.10
2019-01-10T17:45:56.489Z,-0.10
2019-01-10T17:48:37.251Z,-0.20
2019-01-10T17:51:18.412Z,-0.20
2019-01-10T17:53:59.300Z,-0.20
2019-01-10T17:56:40.184Z,-0.20
2019-01-10T17:59:20.773Z,-0.20
2019-01-10T18:02:01.732Z,-0.20
2019-01-10T18:04:42.510Z,-0.20
2019-01-10T18:07:23.208Z,-0.20
2019-01-10T18:10:04.430Z,-0.20
2019-01-10T18:12:46.516Z,-0.20
2019-01-10T18:15:27.573Z,-0.20
2019-01-10T18:18:08.568Z,-0.20
2019-01-10T18:20:49.635Z,-0.20
2019-01-10T18:23:30.279Z,-0.20
2019-01-10T18:26:11.012Z,-0.20
2019-01-10T18:28:51.972Z,-0.20
2019-01-10T18:31:32.625Z,-0.20
2019-01-10T18:34:13.406Z,-0.30
2019-01-10T18:36:54.298Z,-0.30
2019-01-10T18:39:35.135Z,-0.30
2019-01-10T18:42:15.848Z,-0.30
2019-01-10T18:44:56.745Z,-0.30
2019-01-10T18:47:37.668Z,-0.40
2019-01-10T18:50:18.504Z,-0.40
2019-01-10T18:52:58.941Z,-0.30
2019-01-10T18:55:39.479Z,-0.30
2019-01-10T18:58:20.160Z,-0.30
2019-01-10T19:01:00.897Z,-0.40
2019-01-10T19:03:41.507Z,-0.40
2019-01-10T19:06:22.144Z,-0.30
2019-01-10T19:09:02.460Z,-0.30
2019-01-10T19:11:43.633Z,-0.30
2019-01-10T19:14:24.348Z,-0.30
2019-01-10T19:17:05.041Z,-0.40
2019-01-10T19:19:45.996Z,-0.30
2019-01-10T19:22:26.762Z,-0.30
2019-01-10T19:25:07.537Z,-0.30
2019-01-10T19:27:48.792Z,-0.30
2019-01-10T19:30:29.461Z,-0.30
2019-01-10T19:33:10.547Z,-0.30
2019-01-10T19:35:51.433Z,-0.40
2019-01-10T19:38:32.129Z,-0.40
2019-01-10T19:41:12.910Z,-0.40
2019-01-10T19:43:53.589Z,-0.40
2019-01-10T19:49:16.508Z,-0.40
2019-01-10T19:51:57.192Z,-0.40
2019-01-10T19:54:38.177Z,-0.40
2019-01-10T19:57:18.849Z,-0.50
2019-01-10T19:59:59.994Z,-0.50
2019-01-10T20:02:40.920Z,-0.50
2019-01-10T20:05:21.655Z,-0.50
2019-01-10T20:08:02.295Z,-0.50
2019-01-10T20:10:43.081Z,-0.50
2019-01-10T20:13:24.240Z,-0.50
2019-01-10T20:16:05.192Z,-0.50
2019-01-10T20:18:50.565Z,-0.50
2019-01-10T20:21:31.092Z,-0.50
2019-01-10T20:24:12.146Z,-0.50
2019-01-10T20:26:54.110Z,-0.50
2019-01-10T20:29:35.344Z,-0.50
2019-01-10T20:32:15.786Z,-0.40
2019-01-10T20:34:56.285Z,-0.40
2019-01-10T20:37:36.896Z,-0.40
2019-01-10T20:40:17.488Z,-0.40
2019-01-10T20:42:58.487Z,-0.40
2019-01-10T20:45:39.190Z,-0.40
2019-01-10T20:48:22.491Z,-0.40
2019-01-10T20:51:04.995Z,-0.40
2019-01-10T20:53:45.844Z,-0.40
2019-01-10T20:56:26.625Z,-0.40
2019-01-10T20:59:07.350Z,-0.40
2019-01-10T21:01:48.332Z,-0.40
2019-01-10T21:04:28.872Z,-0.40
2019-01-10T21:07:09.853Z,-0.40
2019-01-10T21:09:50.436Z,-0.40
2019-01-10T21:12:31.230Z,-0.40
2019-01-10T21:15:12.253Z,-0.40
2019-01-10T21:17:52.843Z,-0.40
2019-01-10T21:20:34.068Z,-0.40
2019-01-10T21:23:14.826Z,-0.40
2019-01-10T21:25:55.654Z,-0.40
2019-01-10T21:28:36.525Z,-0.40
2019-01-10T21:31:19.883Z,-0.40
2019-01-10T21:34:00.306Z,-0.40
2019-01-10T21:36:41.032Z,-0.40
2019-01-10T21:39:22.028Z,-0.40
2019-01-10T21:42:02.884Z,-0.40
2019-01-10T21:44:43.877Z,-0.50
2019-01-10T21:47:24.644Z,-0.40
2019-01-10T21:50:05.372Z,-0.40
2019-01-10T21:52:46.242Z,-0.40
2019-01-10T21:55:26.961Z,-0.40
2019-01-10T21:58:07.525Z,-0.40
2019-01-10T22:00:48.205Z,-0.40
2019-01-10T22:03:32.117Z,-0.40
2019-01-10T22:06:16.999Z,-0.40
2019-01-10T22:08:57.616Z,-0.40
2019-01-10T22:11:38.748Z,-0.30
2019-01-10T22:14:19.520Z,-0.30
2019-01-10T22:17:00.237Z,-0.30
2019-01-10T22:19:41.023Z,-0.30
2019-01-10T22:22:21.629Z,-0.30
2019-01-10T22:25:05.280Z,-0.40
2019-01-10T22:27:46.370Z,-0.30
2019-01-10T22:30:27.907Z,-0.40
2019-01-10T22:33:08.433Z,-0.40
2019-01-10T22:35:49.211Z,-0.40
2019-01-10T22:38:30.112Z,-0.40
2019-01-10T22:41:10.952Z,-0.40
2019-01-10T22:43:51.636Z,-0.40
2019-01-10T22:46:32.650Z,-0.40
2019-01-10T22:49:13.446Z,-0.40
2019-01-10T22:51:54.753Z,-0.40
2019-01-10T22:54:35.405Z,-0.40
2019-01-10T22:57:16.366Z,-0.40
2019-01-10T22:59:57.025Z,-0.40
2019-01-10T23:02:37.702Z,-0.40
2019-01-10T23:05:18.372Z,-0.50
2019-01-10T23:07:59.152Z,-0.50
2019-01-10T23:10:39.657Z,-0.50
2019-01-10T23:13:21.042Z,-0.50
2019-01-10T23:16:03.091Z,-0.60
2019-01-10T23:18:43.623Z,-0.60
2019-01-10T23:21:24.600Z,-0.60
2019-01-10T23:26:54.075Z,-0.70
2019-01-10T23:29:34.413Z,-0.70
2019-01-10T23:32:15.464Z,-0.70
2019-01-10T23:34:56.506Z,-0.80
2019-01-10T23:37:37.140Z,-0.80
2019-01-10T23:40:17.946Z,-0.80
2019-01-10T23:42:58.635Z,-0.70
2019-01-10T23:45:39.732Z,-0.70
2019-01-10T23:48:20.512Z,-0.70
2019-01-10T23:51:01.356Z,-0.60
2019-01-10T23:53:42.311Z,-0.60
2019-01-10T23:56:23.221Z,-0.60
2019-01-10T23:59:04.059Z,-0.60
